sensor_id;sensor_type;location;lat;lon;timestamp;pressure;altitude;pressure_sealevel;temperature;humidity
49591;BME280;35496;-21.974;-46.800;2022-12-26T00:01:00;92594.72;;;29.48;87.09
49591;BME280;35496;-21.974;-46.800;2022-12-26T00:03:27;92610.03;;;29.29;88.70
49591;BME280;35496;-21.974;-46.800;2022-12-26T00:05:55;92606.41;;;28.73;95.46
49591;BME280;35496;-21.974;-46.800;2022-12-26T00:08:22;92582.94;;;27.40;100.00
49591;BME280;35496;-21.974;-46.800;2022-12-26T00:10:49;92561.75;;;27.01;100.00
49591;BME280;35496;-21.974;-46.800;2022-12-26T00:13:15;92557.75;;;27.52;100.00
49591;BME280;35496;-21.974;-46.800;2022-12-26T00:15:42;92557.16;;;26.77;100.00
49591;BME280;35496;-21.974;-46.800;2022-12-26T00:18:09;92566.16;;;27.11;100.00
49591;BME280;35496;-21.974;-46.800;2022-12-26T00:20:35;92573.59;;;27.14;100.00
49591;BME280;35496;-21.974;-46.800;2022-12-26T00:23:02;92586.53;;;27.55;100.00
49591;BME280;35496;-21.974;-46.800;2022-12-26T00:25:29;92598.13;;;28.31;100.00
49591;BME280;35496;-21.974;-46.800;2022-12-26T00:27:56;92614.63;;;27.47;100.00
49591;BME280;35496;-21.974;-46.800;2022-12-26T00:30:22;92599.75;;;27.89;100.00
49591;BME280;35496;-21.974;-46.800;2022-12-26T00:32:50;92606.22;;;27.59;100.00
49591;BME280;35496;-21.974;-46.800;2022-12-26T00:35:47;92631.16;;;27.97;100.00
49591;BME280;35496;-21.974;-46.800;2022-12-26T00:38:14;92615.81;;;27.84;100.00
49591;BME280;35496;-21.974;-46.800;2022-12-26T00:40:41;92611.09;;;27.22;100.00
49591;BME280;35496;-21.974;-46.800;2022-12-26T00:43:09;92594.94;;;26.45;100.00
49591;BME280;35496;-21.974;-46.800;2022-12-26T00:45:36;92583.63;;;25.64;100.00
49591;BME280;35496;-21.974;-46.800;2022-12-26T00:48:03;92549.66;;;26.05;100.00
49591;BME280;35496;-21.974;-46.800;2022-12-26T00:50:30;92537.09;;;26.51;100.00
49591;BME280;35496;-21.974;-46.800;2022-12-26T00:52:59;92556.88;;;26.39;100.00
49591;BME280;35496;-21.974;-46.800;2022-12-26T00:55:26;92517.78;;;25.95;100.00
49591;BME280;35496;-21.974;-46.800;2022-12-26T00:57:52;92573.59;;;26.84;100.00
49591;BME280;35496;-21.974;-46.800;2022-12-26T01:00:19;92616.94;;;27.30;100.00
49591;BME280;35496;-21.974;-46.800;2022-12-26T01:02:46;92595.13;;;26.59;100.00
49591;BME280;35496;-21.974;-46.800;2022-12-26T01:05:12;92626.69;;;27.10;100.00
49591;BME280;35496;-21.974;-46.800;2022-12-26T01:07:39;92604.75;;;27.18;100.00
49591;BME280;35496;-21.974;-46.800;2022-12-26T01:10:08;92600.00;;;27.69;100.00
49591;BME280;35496;-21.974;-46.800;2022-12-26T01:12:36;92616.72;;;27.26;100.00
49591;BME280;35496;-21.974;-46.800;2022-12-26T01:15:03;92599.25;;;26.75;100.00
49591;BME280;35496;-21.974;-46.800;2022-12-26T01:17:31;92602.00;;;27.29;100.00
49591;BME280;35496;-21.974;-46.800;2022-12-26T01:19:58;92631.38;;;27.77;100.00
49591;BME280;35496;-21.974;-46.800;2022-12-26T01:22:25;92618.41;;;27.12;100.00
49591;BME280;35496;-21.974;-46.800;2022-12-26T01:24:56;92607.19;;;26.85;100.00
49591;BME280;35496;-21.974;-46.800;2022-12-26T01:27:24;92619.16;;;27.17;100.00
49591;BME280;35496;-21.974;-46.800;2022-12-26T01:29:51;92593.44;;;27.02;100.00
49591;BME280;35496;-21.974;-46.800;2022-12-26T01:32:19;92585.44;;;27.02;100.00
49591;BME280;35496;-21.974;-46.800;2022-12-26T01:34:45;92597.66;;;27.38;100.00
49591;BME280;35496;-21.974;-46.800;2022-12-26T01:37:13;92599.56;;;27.03;100.00
49591;BME280;35496;-21.974;-46.800;2022-12-26T01:39:40;92606.13;;;27.45;100.00
49591;BME280;35496;-21.974;-46.800;2022-12-26T01:42:15;92592.06;;;26.76;100.00
49591;BME280;35496;-21.974;-46.800;2022-12-26T01:50:02;92606.81;;;26.97;100.00
49591;BME280;35496;-21.974;-46.800;2022-12-26T01:52:39;92585.22;;;26.99;100.00
49591;BME280;35496;-21.974;-46.800;2022-12-26T01:55:10;92604.75;;;26.89;100.00
49591;BME280;35496;-21.974;-46.800;2022-12-26T01:57:43;92596.75;;;27.18;100.00
49591;BME280;35496;-21.974;-46.800;2022-12-26T02:00:10;92596.28;;;27.11;100.00
49591;BME280;35496;-21.974;-46.800;2022-12-26T02:02:37;92586.13;;;27.13;100.00
49591;BME280;35496;-21.974;-46.800;2022-12-26T02:05:26;92577.28;;;27.71;100.00
49591;BME280;35496;-21.974;-46.800;2022-12-26T02:08:10;92612.75;;;27.72;100.00
49591;BME280;35496;-21.974;-46.800;2022-12-26T02:11:30;92588.34;;;27.35;100.00
49591;BME280;35496;-21.974;-46.800;2022-12-26T02:13:30;92620.72;;;28.01;100.00
49591;BME280;35496;-21.974;-46.800;2022-12-26T02:15:57;92600.66;;;28.03;100.00
49591;BME280;35496;-21.974;-46.800;2022-12-26T02:18:24;92569.63;;;28.08;100.00
49591;BME280;35496;-21.974;-46.800;2022-12-26T02:21:28;92610.66;;;28.36;100.00
49591;BME280;35496;-21.974;-46.800;2022-12-26T02:33:31;92607.78;;;28.51;100.00
49591;BME280;35496;-21.974;-46.800;2022-12-26T02:53:31;92591.13;;;27.97;100.00
49591;BME280;35496;-21.974;-46.800;2022-12-26T02:56:29;92612.53;;;28.16;100.00
49591;BME280;35496;-21.974;-46.800;2022-12-26T02:59:55;92588.50;;;27.44;100.00
49591;BME280;35496;-21.974;-46.800;2022-12-26T03:03:09;92536.81;;;26.86;100.00
49591;BME280;35496;-21.974;-46.800;2022-12-26T03:11:38;92534.13;;;26.86;100.00
49591;BME280;35496;-21.974;-46.800;2022-12-26T03:14:29;92549.91;;;27.12;100.00
49591;BME280;35496;-21.974;-46.800;2022-12-26T03:17:07;92560.59;;;27.36;100.00
49591;BME280;35496;-21.974;-46.800;2022-12-26T03:20:01;92557.94;;;27.36;100.00
49591;BME280;35496;-21.974;-46.800;2022-12-26T03:22:34;92558.25;;;27.78;100.00
49591;BME280;35496;-21.974;-46.800;2022-12-26T03:25:07;92552.91;;;27.78;100.00
49591;BME280;35496;-21.974;-46.800;2022-12-26T03:27:53;92567.66;;;27.94;100.00
49591;BME280;35496;-21.974;-46.800;2022-12-26T03:30:20;92553.34;;;28.09;100.00
49591;BME280;35496;-21.974;-46.800;2022-12-26T03:33:05;92540.16;;;28.32;100.00
49591;BME280;35496;-21.974;-46.800;2022-12-26T03:35:52;92533.16;;;27.36;100.00
49591;BME280;35496;-21.974;-46.800;2022-12-26T03:38:24;92531.19;;;27.65;100.00
49591;BME280;35496;-21.974;-46.800;2022-12-26T03:44:04;92515.63;;;27.30;100.00
49591;BME280;35496;-21.974;-46.800;2022-12-26T03:47:09;92509.06;;;26.93;100.00
49591;BME280;35496;-21.974;-46.800;2022-12-26T03:50:12;92493.78;;;27.46;100.00
49591;BME280;35496;-21.974;-46.800;2022-12-26T03:53:09;92466.97;;;26.31;100.00
49591;BME280;35496;-21.974;-46.800;2022-12-26T03:59:10;92433.25;;;25.82;100.00
49591;BME280;35496;-21.974;-46.800;2022-12-26T04:02:00;92444.81;;;26.01;100.00
49591;BME280;35496;-21.974;-46.800;2022-12-26T04:04:51;92462.75;;;26.25;100.00
49591;BME280;35496;-21.974;-46.800;2022-12-26T04:07:45;92428.28;;;25.65;100.00
49591;BME280;35496;-21.974;-46.800;2022-12-26T04:10:45;92350.09;;;24.66;100.00
49591;BME280;35496;-21.974;-46.800;2022-12-26T04:16:39;92367.97;;;25.10;100.00
49591;BME280;35496;-21.974;-46.800;2022-12-26T04:22:14;92353.63;;;24.36;100.00
49591;BME280;35496;-21.974;-46.800;2022-12-26T04:25:18;92372.88;;;24.83;100.00
49591;BME280;35496;-21.974;-46.800;2022-12-26T04:28:04;92362.31;;;24.67;100.00
49591;BME280;35496;-21.974;-46.800;2022-12-26T04:30:55;92372.75;;;24.38;100.00
49591;BME280;35496;-21.974;-46.800;2022-12-26T04:33:59;92395.25;;;25.31;100.00
49591;BME280;35496;-21.974;-46.800;2022-12-26T04:37:17;92360.72;;;24.66;100.00
49591;BME280;35496;-21.974;-46.800;2022-12-26T04:40:21;92389.75;;;25.12;100.00
49591;BME280;35496;-21.974;-46.800;2022-12-26T04:43:11;92335.38;;;24.19;100.00
49591;BME280;35496;-21.974;-46.800;2022-12-26T04:46:01;92349.56;;;24.75;100.00
49591;BME280;35496;-21.974;-46.800;2022-12-26T04:48:45;92294.75;;;24.29;100.00
49591;BME280;35496;-21.974;-46.800;2022-12-26T04:51:32;92288.88;;;24.37;100.00
49591;BME280;35496;-21.974;-46.800;2022-12-26T04:54:03;92372.59;;;24.89;100.00
49591;BME280;35496;-21.974;-46.800;2022-12-26T04:56:31;92322.81;;;24.56;100.00
49591;BME280;35496;-21.974;-46.800;2022-12-26T04:58:58;92331.31;;;24.52;100.00
49591;BME280;35496;-21.974;-46.800;2022-12-26T05:01:27;92339.84;;;24.99;100.00
49591;BME280;35496;-21.974;-46.800;2022-12-26T05:04:14;92354.44;;;25.07;100.00
49591;BME280;35496;-21.974;-46.800;2022-12-26T05:07:00;92381.84;;;25.52;100.00
49591;BME280;35496;-21.974;-46.800;2022-12-26T05:09:51;92378.78;;;26.08;100.00
49591;BME280;35496;-21.974;-46.800;2022-12-26T05:12:21;92348.72;;;25.34;100.00
49591;BME280;35496;-21.974;-46.800;2022-12-26T05:14:48;92356.41;;;25.41;100.00
49591;BME280;35496;-21.974;-46.800;2022-12-26T05:17:15;92344.00;;;25.65;100.00
49591;BME280;35496;-21.974;-46.800;2022-12-26T05:20:00;92355.38;;;25.37;100.00
49591;BME280;35496;-21.974;-46.800;2022-12-26T05:22:45;92373.72;;;26.36;100.00
49591;BME280;35496;-21.974;-46.800;2022-12-26T05:25:33;92345.75;;;26.09;100.00
49591;BME280;35496;-21.974;-46.800;2022-12-26T05:28:19;92378.41;;;26.20;100.00
49591;BME280;35496;-21.974;-46.800;2022-12-26T05:31:04;92374.75;;;26.40;100.00
49591;BME280;35496;-21.974;-46.800;2022-12-26T05:33:31;92383.34;;;26.32;100.00
49591;BME280;35496;-21.974;-46.800;2022-12-26T05:36:18;92344.75;;;25.71;100.00
49591;BME280;35496;-21.974;-46.800;2022-12-26T05:38:45;92376.50;;;26.26;100.00
49591;BME280;35496;-21.974;-46.800;2022-12-26T05:41:14;92380.97;;;26.01;100.00
49591;BME280;35496;-21.974;-46.800;2022-12-26T05:43:41;92339.25;;;25.97;100.00
49591;BME280;35496;-21.974;-46.800;2022-12-26T05:46:07;92310.19;;;25.31;100.00
49591;BME280;35496;-21.974;-46.800;2022-12-26T05:48:34;92334.50;;;25.54;100.00
49591;BME280;35496;-21.974;-46.800;2022-12-26T05:51:02;92351.63;;;26.12;100.00
49591;BME280;35496;-21.974;-46.800;2022-12-26T05:53:29;92362.53;;;25.76;100.00
49591;BME280;35496;-21.974;-46.800;2022-12-26T05:56:08;92388.25;;;26.49;100.00
49591;BME280;35496;-21.974;-46.800;2022-12-26T05:58:35;92370.09;;;26.27;100.00
49591;BME280;35496;-21.974;-46.800;2022-12-26T06:01:10;92379.66;;;26.28;100.00
49591;BME280;35496;-21.974;-46.800;2022-12-26T06:03:38;92369.59;;;26.49;100.00
49591;BME280;35496;-21.974;-46.800;2022-12-26T06:06:05;92354.53;;;25.81;100.00
49591;BME280;35496;-21.974;-46.800;2022-12-26T06:08:32;92352.78;;;25.61;100.00
49591;BME280;35496;-21.974;-46.800;2022-12-26T06:11:02;92331.88;;;25.04;100.00
49591;BME280;35496;-21.974;-46.800;2022-12-26T06:13:29;92344.06;;;25.10;100.00
49591;BME280;35496;-21.974;-46.800;2022-12-26T06:15:56;92382.28;;;26.04;100.00
49591;BME280;35496;-21.974;-46.800;2022-12-26T06:18:24;92326.25;;;25.11;100.00
49591;BME280;35496;-21.974;-46.800;2022-12-26T06:20:51;92344.25;;;25.29;100.00
49591;BME280;35496;-21.974;-46.800;2022-12-26T06:23:17;92289.53;;;24.68;100.00
49591;BME280;35496;-21.974;-46.800;2022-12-26T06:25:44;92287.19;;;24.67;100.00
49591;BME280;35496;-21.974;-46.800;2022-12-26T06:28:10;92278.41;;;24.66;100.00
49591;BME280;35496;-21.974;-46.800;2022-12-26T06:30:40;92292.34;;;24.92;100.00
49591;BME280;35496;-21.974;-46.800;2022-12-26T06:33:07;92298.69;;;24.97;100.00
49591;BME280;35496;-21.974;-46.800;2022-12-26T06:35:33;92322.72;;;25.31;100.00
49591;BME280;35496;-21.974;-46.800;2022-12-26T06:38:00;92355.81;;;25.83;100.00
49591;BME280;35496;-21.974;-46.800;2022-12-26T06:40:29;92335.44;;;25.68;100.00
49591;BME280;35496;-21.974;-46.800;2022-12-26T06:42:56;92328.50;;;25.73;100.00
49591;BME280;35496;-21.974;-46.800;2022-12-26T06:45:22;92323.16;;;25.78;100.00
49591;BME280;35496;-21.974;-46.800;2022-12-26T06:47:49;92335.53;;;25.58;100.00
49591;BME280;35496;-21.974;-46.800;2022-12-26T06:50:16;92294.13;;;25.07;100.00
49591;BME280;35496;-21.974;-46.800;2022-12-26T06:52:42;92330.56;;;25.02;100.00
49591;BME280;35496;-21.974;-46.800;2022-12-26T06:55:09;92326.88;;;25.42;100.00
49591;BME280;35496;-21.974;-46.800;2022-12-26T06:58:08;92324.41;;;24.46;100.00
49591;BME280;35496;-21.974;-46.800;2022-12-26T07:00:35;92325.22;;;24.52;100.00
49591;BME280;35496;-21.974;-46.800;2022-12-26T07:03:02;92309.81;;;24.44;100.00
49591;BME280;35496;-21.974;-46.800;2022-12-26T07:05:29;92319.41;;;24.34;100.00
49591;BME280;35496;-21.974;-46.800;2022-12-26T07:07:55;92297.81;;;24.62;100.00
49591;BME280;35496;-21.974;-46.800;2022-12-26T07:10:22;92345.69;;;25.01;100.00
49591;BME280;35496;-21.974;-46.800;2022-12-26T07:12:49;92360.03;;;25.05;100.00
49591;BME280;35496;-21.974;-46.800;2022-12-26T07:15:15;92358.47;;;24.99;100.00
49591;BME280;35496;-21.974;-46.800;2022-12-26T07:17:42;92350.41;;;24.44;100.00
49591;BME280;35496;-21.974;-46.800;2022-12-26T07:20:09;92362.34;;;24.62;100.00
49591;BME280;35496;-21.974;-46.800;2022-12-26T07:22:38;92358.59;;;24.73;100.00
49591;BME280;35496;-21.974;-46.800;2022-12-26T07:25:05;92324.50;;;24.21;100.00
49591;BME280;35496;-21.974;-46.800;2022-12-26T07:27:31;92296.56;;;24.33;100.00
49591;BME280;35496;-21.974;-46.800;2022-12-26T07:29:58;92344.34;;;24.33;100.00
49591;BME280;35496;-21.974;-46.800;2022-12-26T07:32:26;92334.81;;;24.27;100.00
49591;BME280;35496;-21.974;-46.800;2022-12-26T07:34:53;92345.69;;;24.26;100.00
49591;BME280;35496;-21.974;-46.800;2022-12-26T07:37:20;92366.94;;;24.16;100.00
49591;BME280;35496;-21.974;-46.800;2022-12-26T07:39:47;92327.97;;;23.75;100.00
49591;BME280;35496;-21.974;-46.800;2022-12-26T07:42:14;92299.09;;;23.32;100.00
49591;BME280;35496;-21.974;-46.800;2022-12-26T07:44:41;92335.66;;;23.56;100.00
49591;BME280;35496;-21.974;-46.800;2022-12-26T07:47:07;92382.56;;;24.27;100.00
49591;BME280;35496;-21.974;-46.800;2022-12-26T07:49:34;92352.09;;;23.73;100.00
49591;BME280;35496;-21.974;-46.800;2022-12-26T07:52:01;92371.75;;;23.98;100.00
49591;BME280;35496;-21.974;-46.800;2022-12-26T07:54:28;92349.72;;;23.77;100.00
49591;BME280;35496;-21.974;-46.800;2022-12-26T07:57:02;92353.41;;;23.40;100.00
49591;BME280;35496;-21.974;-46.800;2022-12-26T07:59:28;92344.41;;;23.77;100.00
49591;BME280;35496;-21.974;-46.800;2022-12-26T08:01:55;92380.19;;;23.49;100.00
49591;BME280;35496;-21.974;-46.800;2022-12-26T08:04:23;92349.44;;;23.58;100.00
49591;BME280;35496;-21.974;-46.800;2022-12-26T08:06:49;92346.28;;;23.66;100.00
49591;BME280;35496;-21.974;-46.800;2022-12-26T08:09:16;92322.66;;;23.60;100.00
49591;BME280;35496;-21.974;-46.800;2022-12-26T08:11:43;92376.78;;;24.00;100.00
49591;BME280;35496;-21.974;-46.800;2022-12-26T08:14:11;92370.66;;;24.30;100.00
49591;BME280;35496;-21.974;-46.800;2022-12-26T08:16:37;92430.25;;;24.84;100.00
49591;BME280;35496;-21.974;-46.800;2022-12-26T08:19:04;92400.38;;;24.11;100.00
49591;BME280;35496;-21.974;-46.800;2022-12-26T08:21:31;92407.53;;;24.21;100.00
49591;BME280;35496;-21.974;-46.800;2022-12-26T08:23:58;92386.56;;;23.73;100.00
49591;BME280;35496;-21.974;-46.800;2022-12-26T08:26:24;92402.19;;;24.52;100.00
49591;BME280;35496;-21.974;-46.800;2022-12-26T08:28:51;92326.91;;;23.40;100.00
49591;BME280;35496;-21.974;-46.800;2022-12-26T08:31:19;92410.72;;;24.18;100.00
49591;BME280;35496;-21.974;-46.800;2022-12-26T08:33:46;92424.47;;;24.36;100.00
49591;BME280;35496;-21.974;-46.800;2022-12-26T08:36:13;92388.91;;;23.34;100.00
49591;BME280;35496;-21.974;-46.800;2022-12-26T08:38:43;92387.59;;;23.31;100.00
49591;BME280;35496;-21.974;-46.800;2022-12-26T08:41:10;92382.06;;;23.59;100.00
49591;BME280;35496;-21.974;-46.800;2022-12-26T08:43:36;92382.25;;;23.11;100.00
49591;BME280;35496;-21.974;-46.800;2022-12-26T08:46:08;92390.22;;;23.26;100.00
49591;BME280;35496;-21.974;-46.800;2022-12-26T08:48:37;92389.22;;;23.73;100.00
49591;BME280;35496;-21.974;-46.800;2022-12-26T08:51:07;92428.19;;;23.68;100.00
49591;BME280;35496;-21.974;-46.800;2022-12-26T08:53:35;88607.06;;;21.45;100.00
49591;BME280;35496;-21.974;-46.800;2022-12-26T08:56:04;88813.50;;;21.50;100.00
49591;BME280;35496;-21.974;-46.800;2022-12-26T08:58:32;89607.84;;;21.43;100.00
49591;BME280;35496;-21.974;-46.800;2022-12-26T09:01:11;89828.84;;;21.69;100.00
49591;BME280;35496;-21.974;-46.800;2022-12-26T09:03:38;90027.41;;;21.71;100.00
49591;BME280;35496;-21.974;-46.800;2022-12-26T09:06:06;90017.19;;;22.22;100.00
49591;BME280;35496;-21.974;-46.800;2022-12-26T09:08:33;89806.38;;;24.08;100.00
49591;BME280;35496;-21.974;-46.800;2022-12-26T09:11:11;90095.97;;;21.36;100.00
49591;BME280;35496;-21.974;-46.800;2022-12-26T09:13:39;90165.03;;;21.52;100.00
49591;BME280;35496;-21.974;-46.800;2022-12-26T09:16:18;90188.00;;;21.91;100.00
49591;BME280;35496;-21.974;-46.800;2022-12-26T09:18:46;90221.81;;;22.21;100.00
49591;BME280;35496;-21.974;-46.800;2022-12-26T09:21:14;90598.03;;;28.20;100.00
49591;BME280;35496;-21.974;-46.800;2022-12-26T09:23:42;90764.97;;;28.55;100.00
49591;BME280;35496;-21.974;-46.800;2022-12-26T09:28:36;90106.25;;;23.08;100.00
49591;BME280;35496;-21.974;-46.800;2022-12-26T09:31:05;89984.81;;;22.42;100.00
49591;BME280;35496;-21.974;-46.800;2022-12-26T09:33:32;89951.72;;;22.18;100.00
49591;BME280;35496;-21.974;-46.800;2022-12-26T09:36:07;89908.72;;;21.83;100.00
49591;BME280;35496;-21.974;-46.800;2022-12-26T09:38:35;89898.41;;;21.99;100.00
49591;BME280;35496;-21.974;-46.800;2022-12-26T09:49:19;90042.34;;;22.54;100.00
49591;BME280;35496;-21.974;-46.800;2022-12-26T09:51:55;90097.75;;;22.68;100.00
49591;BME280;35496;-21.974;-46.800;2022-12-26T09:54:43;90097.22;;;22.92;100.00
49591;BME280;35496;-21.974;-46.800;2022-12-26T09:57:17;90106.53;;;22.98;100.00
49591;BME280;35496;-21.974;-46.800;2022-12-26T09:59:59;90643.44;;;26.75;100.00
49591;BME280;35496;-21.974;-46.800;2022-12-26T10:02:27;90751.34;;;27.44;100.00
49591;BME280;35496;-21.974;-46.800;2022-12-26T10:04:53;90788.78;;;27.69;100.00
49591;BME280;35496;-21.974;-46.800;2022-12-26T10:09:56;90923.75;;;28.24;100.00
49591;BME280;35496;-21.974;-46.800;2022-12-26T10:13:10;90928.72;;;27.92;100.00
49591;BME280;35496;-21.974;-46.800;2022-12-26T10:25:58;90961.16;;;28.03;100.00
49591;BME280;35496;-21.974;-46.800;2022-12-26T10:28:38;91034.94;;;28.95;100.00
49591;BME280;35496;-21.974;-46.800;2022-12-26T10:31:53;91019.44;;;28.76;100.00
49591;BME280;35496;-21.974;-46.800;2022-12-26T10:34:15;90999.13;;;28.42;100.00
49591;BME280;35496;-21.974;-46.800;2022-12-26T10:36:54;91003.59;;;28.50;100.00
49591;BME280;35496;-21.974;-46.800;2022-12-26T10:39:47;91002.91;;;28.62;100.00
49591;BME280;35496;-21.974;-46.800;2022-12-26T10:42:38;91016.47;;;28.57;100.00
49591;BME280;35496;-21.974;-46.800;2022-12-26T10:45:16;90993.25;;;28.70;100.00
49591;BME280;35496;-21.974;-46.800;2022-12-26T10:47:49;91017.53;;;28.77;100.00
49591;BME280;35496;-21.974;-46.800;2022-12-26T10:50:22;91037.25;;;28.51;100.00
49591;BME280;35496;-21.974;-46.800;2022-12-26T10:52:50;91012.31;;;28.80;100.00
49591;BME280;35496;-21.974;-46.800;2022-12-26T10:55:19;91050.31;;;28.86;100.00
49591;BME280;35496;-21.974;-46.800;2022-12-26T10:57:50;91007.63;;;28.77;100.00
49591;BME280;35496;-21.974;-46.800;2022-12-26T11:00:28;91103.25;;;29.38;100.00
49591;BME280;35496;-21.974;-46.800;2022-12-26T11:03:13;91124.81;;;29.67;100.00
49591;BME280;35496;-21.974;-46.800;2022-12-26T11:06:03;91135.69;;;29.83;100.00
49591;BME280;35496;-21.974;-46.800;2022-12-26T11:08:46;91033.50;;;28.65;100.00
49591;BME280;35496;-21.974;-46.800;2022-12-26T11:13:53;91095.44;;;29.33;100.00
49591;BME280;35496;-21.974;-46.800;2022-12-26T11:16:34;91104.03;;;29.85;100.00
49591;BME280;35496;-21.974;-46.800;2022-12-26T11:19:03;91150.44;;;29.68;100.00
49591;BME280;35496;-21.974;-46.800;2022-12-26T11:21:33;91150.81;;;29.78;100.00
49591;BME280;35496;-21.974;-46.800;2022-12-26T11:26:36;91218.59;;;30.65;100.00
49591;BME280;35496;-21.974;-46.800;2022-12-26T11:29:21;91240.94;;;30.94;100.00
49591;BME280;35496;-21.974;-46.800;2022-12-26T11:32:02;91260.31;;;31.68;100.00
49591;BME280;35496;-21.974;-46.800;2022-12-26T11:34:40;91192.63;;;30.41;100.00
49591;BME280;35496;-21.974;-46.800;2022-12-26T11:37:40;91192.34;;;30.83;100.00
49591;BME280;35496;-21.974;-46.800;2022-12-26T11:40:19;91218.66;;;31.06;100.00
49591;BME280;35496;-21.974;-46.800;2022-12-26T11:42:49;91309.91;;;31.46;100.00
49591;BME280;35496;-21.974;-46.800;2022-12-26T11:45:21;91198.97;;;31.26;100.00
49591;BME280;35496;-21.974;-46.800;2022-12-26T11:47:49;91291.47;;;31.45;100.00
49591;BME280;35496;-21.974;-46.800;2022-12-26T11:50:17;91235.31;;;31.11;100.00
49591;BME280;35496;-21.974;-46.800;2022-12-26T11:55:24;91182.44;;;30.71;100.00
49591;BME280;35496;-21.974;-46.800;2022-12-26T12:00:23;91190.38;;;31.21;100.00
49591;BME280;35496;-21.974;-46.800;2022-12-26T12:02:50;91316.81;;;31.60;100.00
49591;BME280;35496;-21.974;-46.800;2022-12-26T12:05:48;91138.16;;;31.30;100.00
49591;BME280;35496;-21.974;-46.800;2022-12-26T12:18:58;91193.66;;;31.70;100.00
49591;BME280;35496;-21.974;-46.800;2022-12-26T12:21:43;91247.22;;;32.71;100.00
49591;BME280;35496;-21.974;-46.800;2022-12-26T12:30:03;91402.53;;;34.12;100.00
49591;BME280;35496;-21.974;-46.800;2022-12-26T12:32:45;91626.00;;;32.76;100.00
49591;BME280;35496;-21.974;-46.800;2022-12-26T12:35:41;91694.84;;;33.74;100.00
49591;BME280;35496;-21.974;-46.800;2022-12-26T12:44:09;92415.66;;;36.87;89.65
49591;BME280;35496;-21.974;-46.800;2022-12-26T13:00:55;92345.44;;;32.86;99.78
49591;BME280;35496;-21.974;-46.800;2022-12-26T13:06:09;92510.09;;;34.37;92.59
49591;BME280;35496;-21.974;-46.800;2022-12-26T13:08:57;92528.09;;;34.87;90.96
49591;BME280;35496;-21.974;-46.800;2022-12-26T13:11:47;92449.22;;;32.87;96.57
49591;BME280;35496;-21.974;-46.800;2022-12-26T13:14:26;92519.22;;;34.65;94.48
49591;BME280;35496;-21.974;-46.800;2022-12-26T13:17:00;92603.78;;;34.40;88.82
49591;BME280;35496;-21.974;-46.800;2022-12-26T13:19:36;92525.81;;;34.35;96.66
49591;BME280;35496;-21.974;-46.800;2022-12-26T13:22:12;92556.94;;;33.94;93.83
49591;BME280;35496;-21.974;-46.800;2022-12-26T13:24:45;92587.59;;;33.07;92.22
49591;BME280;35496;-21.974;-46.800;2022-12-26T13:27:21;92611.00;;;33.41;90.44
49591;BME280;35496;-21.974;-46.800;2022-12-26T13:29:49;92641.41;;;33.98;87.92
49591;BME280;35496;-21.974;-46.800;2022-12-26T13:32:25;92717.53;;;37.93;77.13
49591;BME280;35496;-21.974;-46.800;2022-12-26T13:34:55;92722.66;;;36.03;80.39
49591;BME280;35496;-21.974;-46.800;2022-12-26T13:42:52;92700.09;;;35.11;84.64
49591;BME280;35496;-21.974;-46.800;2022-12-26T13:53:27;92752.00;;;37.93;76.74
49591;BME280;35496;-21.974;-46.800;2022-12-26T13:55:56;92755.63;;;37.56;76.33
49591;BME280;35496;-21.974;-46.800;2022-12-26T14:01:00;92725.66;;;35.89;82.18
49591;BME280;35496;-21.974;-46.800;2022-12-26T14:03:45;92741.25;;;35.71;76.70
49591;BME280;35496;-21.974;-46.800;2022-12-26T14:09:31;92741.97;;;37.53;71.97
49591;BME280;35496;-21.974;-46.800;2022-12-26T14:13:08;92722.28;;;34.66;76.45
49591;BME280;35496;-21.974;-46.800;2022-12-26T14:18:30;92728.16;;;36.65;73.41
49591;BME280;35496;-21.974;-46.800;2022-12-26T14:24:16;92726.66;;;36.42;71.25
49591;BME280;35496;-21.974;-46.800;2022-12-26T14:42:13;92715.88;;;37.32;68.08
49591;BME280;35496;-21.974;-46.800;2022-12-26T14:44:59;92709.97;;;36.77;67.49
49591;BME280;35496;-21.974;-46.800;2022-12-26T14:47:53;92674.31;;;37.00;70.34
49591;BME280;35496;-21.974;-46.800;2022-12-26T14:58:45;92690.13;;;34.31;75.35
49591;BME280;35496;-21.974;-46.800;2022-12-26T15:07:03;92698.78;;;38.16;66.65
49591;BME280;35496;-21.974;-46.800;2022-12-26T15:15:54;92675.63;;;35.71;72.51
49591;BME280;35496;-21.974;-46.800;2022-12-26T15:26:48;92657.13;;;35.06;73.84
49591;BME280;35496;-21.974;-46.800;2022-12-26T15:33:20;92660.22;;;34.45;78.24
49591;BME280;35496;-21.974;-46.800;2022-12-26T15:35:31;92652.69;;;34.30;77.89
49591;BME280;35496;-21.974;-46.800;2022-12-26T15:46:31;92647.53;;;33.68;76.56
49591;BME280;35496;-21.974;-46.800;2022-12-26T16:00:53;92630.81;;;34.82;72.08
49591;BME280;35496;-21.974;-46.800;2022-12-26T16:04:12;92624.22;;;34.20;74.77
49591;BME280;35496;-21.974;-46.800;2022-12-26T16:12:30;92575.63;;;32.78;76.59
49591;BME280;35496;-21.974;-46.800;2022-12-26T16:17:37;92583.00;;;32.03;82.16
49591;BME280;35496;-21.974;-46.800;2022-12-26T16:20:39;92587.31;;;32.47;81.00
49591;BME280;35496;-21.974;-46.800;2022-12-26T16:23:26;92582.75;;;31.50;82.84
49591;BME280;35496;-21.974;-46.800;2022-12-26T16:25:56;92587.78;;;33.02;79.87
49591;BME280;35496;-21.974;-46.800;2022-12-26T16:28:37;92563.38;;;33.24;79.45
49591;BME280;35496;-21.974;-46.800;2022-12-26T16:31:05;92579.41;;;33.12;78.84
49591;BME280;35496;-21.974;-46.800;2022-12-26T16:33:39;92569.91;;;32.97;79.73
49591;BME280;35496;-21.974;-46.800;2022-12-26T16:36:07;92583.94;;;34.44;74.86
49591;BME280;35496;-21.974;-46.800;2022-12-26T16:38:35;92574.38;;;32.67;81.42
49591;BME280;35496;-21.974;-46.800;2022-12-26T16:41:20;92556.47;;;35.39;73.19
49591;BME280;35496;-21.974;-46.800;2022-12-26T16:43:49;92594.69;;;35.74;68.01
49591;BME280;35496;-21.974;-46.800;2022-12-26T16:46:16;92552.41;;;31.41;78.95